Apple Creek, Ohio
Current Conditions -  °F | °C
As of 7:56 PM on Monday 26 Jan 2015 (Local Time) from KBJJ Reporting Station
Overcast Overcast  
Wind Chill:   Ceiling: 1400
Heat Index: 18°   Visibility: 10mi
Dew Point: 14°   Wind: 8mph
Humidity: 84%   Direction: 350°N
Pressure: 29.89"   Gusts: NA
Location:  40.75°N, 81.84°W
Report Text: KBJJ 270056Z AUTO 35007KT 10SM OVC014 M08/M10 A2989 RMK AO2 SLP140 T10781100 TSNO
Loading
Personal Weather Stations






























Interactive Weather Map New forecast layout! Learn more

10-Day Weather Forecast

Advertisements
Track Severe Weather on mobile